Time;durP1;ratioP1;P1;durP2;ratioP2;P2;SDS_P1;SDS_P2;PMS_P1;PMS_P2;Temp;Humidity;BMP_temperature;BMP_pressure;BME280_temperature;BME280_humidity;BME280_pressure;Samples;Min_cycle;Max_cycle;Signal;HPM_P1;HPM_P2
2022/05/29 00:00:27;;;;;;;5.70;3.40;;;;;;;;;;5121962;22;20841;-73
2022/05/29 00:02:55;;;;;;;8.57;3.57;;;;;;;;;;5088772;28;20202;-73
2022/05/29 00:05:24;;;;;;;5.63;3.37;;;;;;;;;;5092679;28;20201;-72
2022/05/29 00:07:54;;;;;;;6.60;3.20;;;;;;;;;;5080772;28;20228;-73
2022/05/29 00:10:22;;;;;;;8.70;3.60;;;;;;;;;;5071445;28;20355;-73
2022/05/29 00:12:51;;;;;;;8.57;3.47;;;;;;;;;;5069300;28;20194;-72
2022/05/29 00:15:19;;;;;;;7.97;3.20;;;;;;;;;;5065636;28;20586;-72
2022/05/29 00:17:47;;;;;;;5.97;3.67;;;;;;;;;;5068430;28;20777;-73
2022/05/29 00:20:16;;;;;;;6.37;3.43;;;;;;;;;;5070798;28;20233;-72
2022/05/29 00:22:44;;;;;;;7.80;3.77;;;;;;;;;;5069682;28;20210;-72
2022/05/29 00:25:14;;;;;;;8.23;3.97;;;;;;;;;;5071453;28;20203;-73
2022/05/29 00:27:42;;;;;;;9.33;4.00;;;;;;;;;;5077198;28;20302;-72
2022/05/29 00:30:12;;;;;;;9.73;4.37;;;;;;;;;;5088736;28;20616;-74
2022/05/29 00:32:41;;;;;;;9.37;4.47;;;;;;;;;;5063900;28;20681;-73
2022/05/29 00:35:09;;;;;;;9.67;4.23;;;;;;;;;;5070403;28;20224;-72
2022/05/29 00:37:40;;;;;;;12.50;4.13;;;;;;;;;;5067520;28;20223;-73
2022/05/29 00:40:14;;;;;;;8.30;3.90;;;;;;;;;;5070828;28;20198;-73
2022/05/29 00:42:43;;;;;;;8.00;3.70;;;;;;;;;;5066544;28;20190;-73
2022/05/29 00:45:15;;;;;;;11.97;4.30;;;;;;;;;;5069809;28;20251;-72
2022/05/29 00:47:43;;;;;;;13.37;4.33;;;;;;;;;;5070614;28;20234;-72
2022/05/29 00:50:11;;;;;;;9.90;4.50;;;;;;;;;;5070672;28;20267;-73
2022/05/29 00:52:40;;;;;;;9.97;4.07;;;;;;;;;;5074116;28;20198;-72
2022/05/29 00:55:13;;;;;;;10.80;4.40;;;;;;;;;;5071151;28;20206;-72
2022/05/29 00:57:44;;;;;;;10.77;3.93;;;;;;;;;;5074837;28;20701;-73
2022/05/29 01:00:14;;;;;;;10.90;4.37;;;;;;;;;;5070929;28;20747;-73
2022/05/29 01:02:43;;;;;;;9.00;3.97;;;;;;;;;;5077236;28;20202;-72
2022/05/29 01:05:13;;;;;;;9.63;4.27;;;;;;;;;;5070931;28;20222;-73
2022/05/29 01:07:44;;;;;;;8.20;4.10;;;;;;;;;;5073369;28;20229;-73
2022/05/29 01:10:13;;;;;;;11.20;4.07;;;;;;;;;;5070567;28;20199;-73
2022/05/29 01:12:48;;;;;;;8.70;4.10;;;;;;;;;;5071197;28;20569;-73
2022/05/29 01:15:22;;;;;;;10.90;4.10;;;;;;;;;;5068554;28;20248;-73
2022/05/29 01:18:00;;;;;;;11.27;4.43;;;;;;;;;;5062296;28;20220;-73
2022/05/29 01:20:40;;;;;;;12.10;4.00;;;;;;;;;;5066209;28;20812;-73
2022/05/29 01:23:17;;;;;;;13.57;4.27;;;;;;;;;;5061088;28;20719;-73
2022/05/29 01:26:00;;;;;;;9.50;4.10;;;;;;;;;;5062554;28;20240;-72
2022/05/29 01:28:35;;;;;;;10.80;4.47;;;;;;;;;;5062475;28;20226;-72
2022/05/29 01:31:07;;;;;;;12.83;4.00;;;;;;;;;;5069609;28;20249;-72
2022/05/29 01:33:40;;;;;;;9.50;4.30;;;;;;;;;;5070813;28;20213;-73
2022/05/29 01:36:12;;;;;;;8.90;4.27;;;;;;;;;;5070147;28;20199;-73
2022/05/29 01:38:43;;;;;;;9.80;4.27;;;;;;;;;;5065827;28;20218;-73
2022/05/29 01:41:13;;;;;;;9.03;4.00;;;;;;;;;;5071111;28;20210;-74
2022/05/29 01:43:46;;;;;;;11.40;4.07;;;;;;;;;;5070898;28;20285;-73
2022/05/29 01:46:16;;;;;;;7.87;4.20;;;;;;;;;;5061131;28;20217;-73
2022/05/29 01:48:48;;;;;;;8.27;4.10;;;;;;;;;;5066803;28;20229;-73
2022/05/29 01:51:18;;;;;;;10.70;4.00;;;;;;;;;;5065712;28;20203;-73
2022/05/29 01:53:50;;;;;;;12.63;4.00;;;;;;;;;;5071191;28;20213;-72
2022/05/29 01:56:20;;;;;;;10.40;4.20;;;;;;;;;;5067372;28;20198;-73
2022/05/29 01:58:53;;;;;;;9.27;4.30;;;;;;;;;;5067251;28;20599;-73
2022/05/29 02:01:24;;;;;;;9.10;4.33;;;;;;;;;;5070692;28;20214;-73
2022/05/29 02:03:53;;;;;;;10.97;4.60;;;;;;;;;;5071782;28;20246;-73
2022/05/29 02:06:25;;;;;;;10.23;4.03;;;;;;;;;;5066529;28;20202;-73
2022/05/29 02:08:55;;;;;;;10.30;4.77;;;;;;;;;;5072917;28;20740;-74
2022/05/29 02:11:25;;;;;;;8.60;4.10;;;;;;;;;;5069421;28;20214;-73
2022/05/29 02:13:56;;;;;;;8.93;4.57;;;;;;;;;;5074771;28;20198;-73
2022/05/29 02:16:28;;;;;;;10.57;4.57;;;;;;;;;;5068572;28;20261;-73
2022/05/29 02:18:59;;;;;;;7.10;4.57;;;;;;;;;;5071855;28;20215;-72
2022/05/29 02:21:31;;;;;;;7.60;4.10;;;;;;;;;;5066840;28;20203;-72
2022/05/29 02:24:02;;;;;;;12.93;4.97;;;;;;;;;;5074305;28;20209;-73
2022/05/29 02:26:41;;;;;;;12.13;5.17;;;;;;;;;;5068514;28;20253;-73
2022/05/29 02:29:12;;;;;;;12.07;5.00;;;;;;;;;;5080148;28;20283;-73
2022/05/29 02:31:43;;;;;;;12.70;5.00;;;;;;;;;;5065106;28;20256;-72
2022/05/29 02:34:15;;;;;;;10.13;4.70;;;;;;;;;;5072882;28;20206;-73
2022/05/29 02:36:49;;;;;;;10.53;4.30;;;;;;;;;;5066476;28;20215;-73
2022/05/29 02:39:21;;;;;;;12.50;4.87;;;;;;;;;;5074178;28;20237;-73
2022/05/29 02:41:53;;;;;;;9.03;4.43;;;;;;;;;;5103357;23;20234;-74
2022/05/29 02:44:29;;;;;;;8.73;4.63;;;;;;;;;;5022877;28;20212;-74
2022/05/29 02:47:00;;;;;;;11.50;5.03;;;;;;;;;;5039318;28;20620;-74
2022/05/29 02:49:32;;;;;;;10.87;4.60;;;;;;;;;;5032240;28;20280;-73
2022/05/29 02:52:02;;;;;;;9.43;4.50;;;;;;;;;;5029596;28;20617;-73
2022/05/29 02:54:31;;;;;;;8.40;4.77;;;;;;;;;;5033094;28;20212;-73
2022/05/29 02:57:01;;;;;;;12.60;4.67;;;;;;;;;;5033459;28;20200;-73
2022/05/29 02:59:32;;;;;;;10.80;4.50;;;;;;;;;;5033930;28;20208;-73
2022/05/29 03:02:04;;;;;;;10.30;4.77;;;;;;;;;;5026166;28;20207;-73
2022/05/29 03:04:34;;;;;;;15.37;4.97;;;;;;;;;;5025636;28;20199;-74
2022/05/29 03:07:05;;;;;;;8.80;5.00;;;;;;;;;;5033287;28;20196;-74
2022/05/29 03:09:42;;;;;;;11.50;4.90;;;;;;;;;;5032473;28;20697;-73
2022/05/29 03:12:14;;;;;;;11.67;5.13;;;;;;;;;;5026277;28;20196;-73
2022/05/29 03:14:47;;;;;;;9.13;5.07;;;;;;;;;;5026162;28;20207;-73
2022/05/29 03:17:17;;;;;;;11.60;5.30;;;;;;;;;;5033886;28;20203;-74
2022/05/29 03:19:49;;;;;;;13.17;5.10;;;;;;;;;;5031490;28;20208;-73
2022/05/29 03:22:22;;;;;;;10.03;5.13;;;;;;;;;;5030255;28;20214;-73
2022/05/29 03:24:55;;;;;;;12.17;5.40;;;;;;;;;;5032946;28;20203;-74
2022/05/29 03:27:27;;;;;;;10.90;5.63;;;;;;;;;;5032141;28;20219;-73
2022/05/29 03:30:01;;;;;;;9.70;5.13;;;;;;;;;;5032978;28;20254;-74
2022/05/29 03:32:30;;;;;;;13.27;5.23;;;;;;;;;;5022110;28;20568;-73
2022/05/29 03:34:58;;;;;;;12.10;5.30;;;;;;;;;;5017432;28;20646;-74
2022/05/29 03:37:27;;;;;;;13.43;5.23;;;;;;;;;;5031654;28;20228;-73
2022/05/29 03:39:55;;;;;;;9.93;5.60;;;;;;;;;;5032588;28;20211;-74
2022/05/29 03:42:24;;;;;;;9.60;5.37;;;;;;;;;;5031537;28;20207;-74
2022/05/29 03:44:54;;;;;;;14.50;5.37;;;;;;;;;;5030365;28;20199;-74
2022/05/29 03:47:24;;;;;;;14.47;5.13;;;;;;;;;;5029272;28;20254;-73
2022/05/29 03:49:53;;;;;;;13.40;5.23;;;;;;;;;;5030005;28;20233;-74
2022/05/29 03:52:21;;;;;;;9.50;5.10;;;;;;;;;;5033713;28;20208;-73
2022/05/29 03:54:49;;;;;;;8.60;5.10;;;;;;;;;;5026251;28;20208;-74
2022/05/29 03:57:18;;;;;;;10.73;4.83;;;;;;;;;;5033366;28;20227;-73
2022/05/29 03:59:46;;;;;;;9.60;4.87;;;;;;;;;;5032438;28;20196;-73
2022/05/29 04:02:15;;;;;;;13.13;5.40;;;;;;;;;;5065387;22;20251;-74
2022/05/29 04:04:44;;;;;;;13.77;5.53;;;;;;;;;;5066660;22;20235;-74
2022/05/29 04:07:13;;;;;;;11.37;5.00;;;;;;;;;;5053239;28;20211;-74
2022/05/29 04:12:27;;;;;;;11.10;4.87;;;;;;;;;;5051968;28;20214;-73
2022/05/29 04:14:57;;;;;;;10.17;4.77;;;;;;;;;;5052186;28;20202;-73
2022/05/29 04:17:25;;;;;;;11.57;4.93;;;;;;;;;;5041003;28;20226;-73
2022/05/29 04:19:55;;;;;;;10.20;5.10;;;;;;;;;;5040230;28;20207;-74
2022/05/29 04:22:23;;;;;;;13.47;5.27;;;;;;;;;;5051391;28;20207;-73
2022/05/29 04:24:52;;;;;;;13.10;5.13;;;;;;;;;;5051635;28;20577;-73
2022/05/29 04:27:20;;;;;;;11.30;4.97;;;;;;;;;;5050289;28;20222;-73
2022/05/29 04:29:49;;;;;;;17.63;4.70;;;;;;;;;;5052619;28;20224;-74
2022/05/29 04:35:05;;;;;;;9.03;5.00;;;;;;;;;;5039753;28;20206;-73
2022/05/29 04:37:34;;;;;;;11.53;5.03;;;;;;;;;;5044610;28;20287;-74
2022/05/29 04:40:02;;;;;;;10.10;5.00;;;;;;;;;;5051249;28;20210;-73
2022/05/29 04:42:31;;;;;;;11.63;5.00;;;;;;;;;;5049726;28;20210;-73
2022/05/29 04:44:59;;;;;;;12.03;5.33;;;;;;;;;;5046930;28;20198;-74
2022/05/29 04:47:28;;;;;;;12.60;5.30;;;;;;;;;;5051073;28;20230;-73
2022/05/29 04:49:57;;;;;;;11.60;5.93;;;;;;;;;;5051176;28;20232;-74
2022/05/29 04:52:29;;;;;;;15.27;5.50;;;;;;;;;;5052271;28;20214;-73
2022/05/29 04:54:57;;;;;;;10.40;5.17;;;;;;;;;;5041712;28;20577;-73
2022/05/29 04:57:26;;;;;;;9.63;4.63;;;;;;;;;;5052518;28;20234;-72
2022/05/29 04:59:55;;;;;;;12.00;5.00;;;;;;;;;;5048510;28;20674;-73
2022/05/29 05:02:23;;;;;;;12.07;5.20;;;;;;;;;;5051814;28;20211;-73
2022/05/29 05:04:51;;;;;;;10.77;5.23;;;;;;;;;;5048759;28;20265;-72
2022/05/29 05:07:20;;;;;;;11.83;4.97;;;;;;;;;;5047904;28;20227;-73
2022/05/29 05:09:50;;;;;;;11.83;5.07;;;;;;;;;;5050442;28;20241;-72
2022/05/29 05:12:19;;;;;;;11.70;4.80;;;;;;;;;;5051049;28;20217;-73
2022/05/29 05:14:48;;;;;;;8.10;4.50;;;;;;;;;;5046447;28;20205;-73
2022/05/29 05:17:16;;;;;;;13.03;4.87;;;;;;;;;;5043955;28;20203;-73
2022/05/29 05:19:45;;;;;;;9.60;4.60;;;;;;;;;;5050773;28;20252;-73
2022/05/29 05:22:13;;;;;;;8.97;4.30;;;;;;;;;;5051769;28;20207;-73
2022/05/29 05:24:42;;;;;;;7.90;4.37;;;;;;;;;;5082962;22;20258;-73
2022/05/29 05:27:12;;;;;;;11.83;4.87;;;;;;;;;;5033503;28;20199;-72
2022/05/29 05:29:42;;;;;;;9.13;4.77;;;;;;;;;;5072062;28;20219;-73
2022/05/29 05:32:11;;;;;;;10.03;4.27;;;;;;;;;;5050820;28;20207;-73
2022/05/29 05:34:40;;;;;;;9.17;4.40;;;;;;;;;;5052472;28;20724;-72
2022/05/29 05:37:09;;;;;;;9.80;4.80;;;;;;;;;;5053119;28;20207;-72
2022/05/29 05:39:37;;;;;;;13.47;5.00;;;;;;;;;;5055426;28;20259;-72
2022/05/29 05:42:06;;;;;;;8.97;4.77;;;;;;;;;;5053097;28;20207;-73
2022/05/29 05:44:36;;;;;;;10.20;4.83;;;;;;;;;;5049638;28;20208;-72
2022/05/29 05:47:05;;;;;;;10.03;4.80;;;;;;;;;;5048498;28;20322;-72
2022/05/29 05:49:33;;;;;;;10.93;4.60;;;;;;;;;;5073523;28;20254;-72
2022/05/29 05:52:02;;;;;;;9.23;5.27;;;;;;;;;;5053294;28;20199;-73
2022/05/29 05:54:31;;;;;;;11.57;5.90;;;;;;;;;;5045444;28;20210;-73
2022/05/29 05:57:00;;;;;;;10.57;5.73;;;;;;;;;;5054817;28;20195;-72
2022/05/29 05:59:28;;;;;;;13.90;5.97;;;;;;;;;;5039592;28;20208;-73
2022/05/29 06:01:58;;;;;;;8.77;5.10;;;;;;;;;;5038924;28;20238;-73
2022/05/29 06:04:26;;;;;;;12.03;5.70;;;;;;;;;;5067559;28;20199;-72
2022/05/29 06:06:55;;;;;;;11.17;5.87;;;;;;;;;;5054250;28;20207;-73
2022/05/29 06:09:24;;;;;;;13.10;6.20;;;;;;;;;;5054242;28;20237;-73
2022/05/29 06:11:52;;;;;;;15.77;6.27;;;;;;;;;;5068922;28;20761;-72
2022/05/29 06:14:21;;;;;;;9.57;5.50;;;;;;;;;;5040398;28;20206;-72
2022/05/29 06:16:49;;;;;;;13.43;6.27;;;;;;;;;;5069453;28;20203;-72
2022/05/29 06:19:19;;;;;;;13.83;6.07;;;;;;;;;;5053725;28;20230;-72
2022/05/29 06:21:48;;;;;;;10.53;6.20;;;;;;;;;;5066240;28;20305;-73
2022/05/29 06:24:16;;;;;;;15.10;6.33;;;;;;;;;;5064682;28;20219;-72
2022/05/29 06:26:44;;;;;;;12.90;5.70;;;;;;;;;;5058140;28;20275;-73
2022/05/29 06:29:13;;;;;;;11.53;5.83;;;;;;;;;;5046389;28;20223;-73
2022/05/29 06:31:41;;;;;;;9.93;5.27;;;;;;;;;;5064773;28;20214;-72
2022/05/29 06:34:10;;;;;;;11.67;5.40;;;;;;;;;;5055117;28;20199;-72
2022/05/29 06:36:41;;;;;;;9.03;5.37;;;;;;;;;;5055612;28;20654;-73
2022/05/29 06:39:09;;;;;;;9.73;6.07;;;;;;;;;;5053784;28;20227;-73
2022/05/29 06:41:39;;;;;;;12.07;5.80;;;;;;;;;;5051900;28;20259;-72
2022/05/29 06:44:07;;;;;;;11.00;5.37;;;;;;;;;;5054340;28;20218;-73
2022/05/29 06:46:36;;;;;;;8.20;6.00;;;;;;;;;;5054770;28;20211;-72
2022/05/29 06:49:04;;;;;;;8.80;5.50;;;;;;;;;;5051753;28;20650;-73
2022/05/29 06:51:33;;;;;;;9.10;5.23;;;;;;;;;;5043284;28;20614;-73
2022/05/29 06:54:04;;;;;;;11.27;5.70;;;;;;;;;;5051684;28;20214;-73
2022/05/29 06:56:33;;;;;;;10.33;6.00;;;;;;;;;;5051025;28;20207;-72
2022/05/29 06:59:05;;;;;;;11.40;6.00;;;;;;;;;;5035722;28;20269;-73
2022/05/29 07:07:19;;;;;;;10.83;5.87;;;;;;;;;;5002913;28;20216;-73
2022/05/29 07:09:49;;;;;;;10.37;5.90;;;;;;;;;;5040185;28;20273;-74
2022/05/29 07:12:19;;;;;;;10.40;5.77;;;;;;;;;;5047375;28;20249;-73
2022/05/29 07:14:48;;;;;;;10.00;5.40;;;;;;;;;;5055005;28;20207;-73
2022/05/29 07:17:18;;;;;;;10.30;5.30;;;;;;;;;;5051235;28;20214;-73
2022/05/29 07:19:47;;;;;;;9.43;5.07;;;;;;;;;;5054955;28;20202;-73
2022/05/29 07:22:15;;;;;;;8.53;5.33;;;;;;;;;;5060222;28;20206;-72
2022/05/29 07:24:44;;;;;;;9.37;6.40;;;;;;;;;;5065411;28;20220;-73
2022/05/29 07:27:14;;;;;;;10.70;6.03;;;;;;;;;;5053228;28;20196;-73
2022/05/29 07:29:43;;;;;;;12.50;6.37;;;;;;;;;;5048911;28;20226;-73
2022/05/29 07:32:12;;;;;;;12.80;5.40;;;;;;;;;;5043515;28;21167;-73
2022/05/29 07:34:43;;;;;;;9.00;5.03;;;;;;;;;;5052200;28;20203;-73
2022/05/29 07:37:14;;;;;;;8.70;4.50;;;;;;;;;;5046284;28;20249;-73
2022/05/29 07:39:43;;;;;;;9.17;4.50;;;;;;;;;;5047492;28;20195;-74
2022/05/29 07:45:00;;;;;;;8.80;4.60;;;;;;;;;;5054973;28;20249;-73
2022/05/29 07:47:29;;;;;;;6.43;4.90;;;;;;;;;;5042271;28;20242;-73
2022/05/29 07:49:58;;;;;;;7.53;4.80;;;;;;;;;;5042740;28;20740;-75
2022/05/29 07:52:27;;;;;;;7.37;4.67;;;;;;;;;;5052482;28;20210;-74
2022/05/29 07:54:55;;;;;;;9.30;5.47;;;;;;;;;;5049987;28;20207;-74
2022/05/29 07:57:26;;;;;;;8.03;5.47;;;;;;;;;;5052765;28;20245;-74
2022/05/29 08:00:00;;;;;;;7.97;4.67;;;;;;;;;;5044914;28;20208;-74
2022/05/29 08:02:34;;;;;;;6.23;4.70;;;;;;;;;;5043750;28;20199;-74
2022/05/29 08:05:03;;;;;;;8.90;4.67;;;;;;;;;;5052072;28;20685;-73
2022/05/29 08:07:32;;;;;;;9.13;4.70;;;;;;;;;;5052613;28;20222;-73
2022/05/29 08:10:00;;;;;;;10.77;5.10;;;;;;;;;;5040826;28;20203;-73
2022/05/29 08:12:31;;;;;;;6.90;4.43;;;;;;;;;;5049804;28;20222;-73
2022/05/29 08:14:59;;;;;;;7.43;4.13;;;;;;;;;;5034593;28;20207;-73
2022/05/29 08:17:28;;;;;;;8.07;4.10;;;;;;;;;;5053466;28;20775;-73
2022/05/29 08:19:56;;;;;;;6.37;4.20;;;;;;;;;;5043290;28;20199;-73
2022/05/29 08:22:25;;;;;;;6.60;4.20;;;;;;;;;;5051674;28;20199;-73
2022/05/29 08:30:41;;;;;;;6.73;3.67;;;;;;;;;;5041643;28;20211;-73
2022/05/29 08:33:11;;;;;;;9.03;4.43;;;;;;;;;;5037808;28;20348;-73
2022/05/29 08:35:40;;;;;;;7.70;3.60;;;;;;;;;;5051023;28;20206;-72
2022/05/29 08:38:10;;;;;;;6.37;3.03;;;;;;;;;;5048532;28;20257;-74
2022/05/29 08:40:41;;;;;;;3.50;2.37;;;;;;;;;;5043108;28;20283;-73
2022/05/29 08:43:17;;;;;;;6.07;3.20;;;;;;;;;;5042879;28;20210;-75
2022/05/29 08:45:47;;;;;;;7.93;3.70;;;;;;;;;;5050242;28;20241;-74
2022/05/29 08:48:16;;;;;;;7.23;3.33;;;;;;;;;;5052397;28;20698;-73
2022/05/29 08:50:48;;;;;;;9.30;4.20;;;;;;;;;;5048415;28;20238;-74
2022/05/29 08:53:22;;;;;;;8.23;4.47;;;;;;;;;;5048809;28;20207;-74
2022/05/29 08:55:53;;;;;;;8.50;4.13;;;;;;;;;;5046860;28;20195;-73
2022/05/29 08:58:29;;;;;;;7.27;4.30;;;;;;;;;;5048897;28;20218;-73
2022/05/29 09:01:04;;;;;;;9.50;4.20;;;;;;;;;;5045540;28;20293;-74
2022/05/29 09:03:47;;;;;;;9.73;5.00;;;;;;;;;;5043425;28;20248;-73
2022/05/29 09:06:31;;;;;;;8.40;4.10;;;;;;;;;;5037869;28;20258;-73
2022/05/29 09:09:03;;;;;;;6.90;3.60;;;;;;;;;;5048342;28;20230;-72
2022/05/29 09:11:34;;;;;;;6.63;3.43;;;;;;;;;;5048500;28;20616;-72
2022/05/29 09:14:09;;;;;;;12.43;3.53;;;;;;;;;;5043856;28;20206;-72
2022/05/29 09:16:43;;;;;;;8.37;3.33;;;;;;;;;;5047256;28;20204;-72
2022/05/29 09:19:13;;;;;;;6.10;3.43;;;;;;;;;;5049429;28;20595;-72
2022/05/29 09:21:46;;;;;;;7.90;3.10;;;;;;;;;;5055227;28;20207;-72
2022/05/29 09:24:19;;;;;;;7.30;3.20;;;;;;;;;;5048342;28;20223;-72
2022/05/29 09:26:48;;;;;;;10.03;3.50;;;;;;;;;;5049272;28;20256;-72
2022/05/29 09:29:18;;;;;;;10.33;3.40;;;;;;;;;;5055771;28;20226;-72
2022/05/29 09:31:46;;;;;;;7.57;3.13;;;;;;;;;;5053497;28;20219;-72
2022/05/29 09:34:15;;;;;;;10.47;3.50;;;;;;;;;;5050693;28;20274;-73
2022/05/29 09:36:50;;;;;;;7.13;3.27;;;;;;;;;;5054155;28;20557;-72
2022/05/29 09:39:24;;;;;;;8.97;3.50;;;;;;;;;;5051658;28;20662;-72
2022/05/29 09:41:57;;;;;;;10.60;2.97;;;;;;;;;;5052352;28;20195;-72
2022/05/29 09:44:28;;;;;;;7.27;2.77;;;;;;;;;;5050079;28;20199;-73
2022/05/29 09:49:40;;;;;;;5.87;2.73;;;;;;;;;;5052645;28;20202;-71
2022/05/29 09:50:01;;;;;;;9.13;3.13;;;;;;;;;;5048507;28;20214;-72
2022/05/29 09:52:31;;;;;;;7.87;2.93;;;;;;;;;;5048398;28;20222;-72
2022/05/29 09:55:06;;;;;;;6.10;2.77;;;;;;;;;;5049605;28;20199;-72
2022/05/29 09:57:37;;;;;;;8.20;2.70;;;;;;;;;;5044040;28;20226;-72
2022/05/29 10:00:09;;;;;;;5.53;2.90;;;;;;;;;;5045902;28;20534;-72
2022/05/29 10:02:39;;;;;;;7.83;2.80;;;;;;;;;;5047182;28;20202;-73
2022/05/29 10:05:09;;;;;;;10.13;2.90;;;;;;;;;;5047091;28;20208;-72
2022/05/29 10:07:40;;;;;;;7.33;2.60;;;;;;;;;;5048099;28;20227;-73
2022/05/29 10:10:10;;;;;;;3.43;1.37;;;;;;;;;;5055121;28;20203;-72
2022/05/29 10:12:41;;;;;;;3.93;1.80;;;;;;;;;;5060390;28;20635;-72
2022/05/29 10:15:34;;;;;;;4.33;2.00;;;;;;;;;;5040501;28;20253;-74
2022/05/29 10:18:05;;;;;;;4.17;1.80;;;;;;;;;;5046827;28;20591;-73
2022/05/29 10:20:34;;;;;;;7.50;2.30;;;;;;;;;;5051412;28;20246;-75
2022/05/29 10:23:04;;;;;;;5.60;2.20;;;;;;;;;;5055101;28;20694;-75
2022/05/29 10:25:34;;;;;;;4.83;2.30;;;;;;;;;;5054009;28;20231;-75
2022/05/29 10:28:04;;;;;;;5.73;2.30;;;;;;;;;;5049891;28;20227;-74
2022/05/29 10:30:36;;;;;;;5.77;2.30;;;;;;;;;;5055139;28;20207;-74
2022/05/29 10:33:07;;;;;;;5.50;2.33;;;;;;;;;;5039969;28;20922;-73
2022/05/29 10:35:36;;;;;;;5.43;2.27;;;;;;;;;;5051009;28;20622;-74
2022/05/29 10:38:16;;;;;;;5.57;2.50;;;;;;;;;;5049374;28;20223;-74
2022/05/29 10:40:45;;;;;;;8.60;2.87;;;;;;;;;;5050431;28;20748;-74
2022/05/29 10:43:22;;;;;;;4.90;2.60;;;;;;;;;;5044801;28;20300;-74
2022/05/29 10:45:53;;;;;;;7.57;2.73;;;;;;;;;;5036870;28;20666;-74
2022/05/29 10:48:37;;;;;;;6.93;3.03;;;;;;;;;;5046242;28;20231;-74
2022/05/29 10:51:09;;;;;;;5.83;2.80;;;;;;;;;;5043827;28;20211;-73
2022/05/29 10:53:43;;;;;;;8.13;3.37;;;;;;;;;;5050907;28;20216;-74
2022/05/29 10:56:18;;;;;;;5.93;2.80;;;;;;;;;;5050075;28;20202;-72
2022/05/29 10:58:55;;;;;;;8.90;3.20;;;;;;;;;;5048634;28;20227;-73
2022/05/29 11:04:58;;;;;;;7.93;3.03;;;;;;;;;;4947506;29;20305;-72
2022/05/29 11:07:31;;;;;;;5.50;2.43;;;;;;;;;;5034697;28;20578;-73
2022/05/29 11:10:05;;;;;;;5.63;2.30;;;;;;;;;;5059639;28;20203;-75
2022/05/29 11:12:58;;;;;;;4.87;2.20;;;;;;;;;;5053781;28;20222;-74
2022/05/29 11:15:35;;;;;;;3.03;1.80;;;;;;;;;;5049190;28;20202;-74
2022/05/29 11:18:13;;;;;;;4.10;1.60;;;;;;;;;;5047490;28;20226;-73
2022/05/29 11:20:51;;;;;;;6.23;1.90;;;;;;;;;;5046380;28;20726;-74
2022/05/29 11:23:35;;;;;;;3.60;1.80;;;;;;;;;;5044784;28;20203;-74
2022/05/29 11:26:09;;;;;;;7.10;1.97;;;;;;;;;;5048562;28;20196;-73
2022/05/29 11:28:52;;;;;;;6.23;2.23;;;;;;;;;;5074471;28;20226;-73
2022/05/29 11:31:46;;;;;;;4.97;1.90;;;;;;;;;;5053526;28;20258;-73
2022/05/29 11:34:22;;;;;;;4.67;2.27;;;;;;;;;;5044023;28;20678;-73
2022/05/29 11:36:59;;;;;;;2.67;1.33;;;;;;;;;;5050491;28;20207;-74
2022/05/29 11:39:36;;;;;;;4.53;1.70;;;;;;;;;;5051907;28;20198;-74
2022/05/29 11:42:10;;;;;;;3.43;1.20;;;;;;;;;;5042602;28;20200;-73
2022/05/29 11:44:42;;;;;;;1.77;1.10;;;;;;;;;;5048713;28;20294;-73
2022/05/29 11:53:04;;;;;;;2.37;1.20;;;;;;;;;;5050768;28;20322;-74
2022/05/29 11:55:36;;;;;;;3.07;1.40;;;;;;;;;;5044954;28;20585;-74
2022/05/29 11:58:08;;;;;;;2.53;1.30;;;;;;;;;;5052668;28;20238;-74
2022/05/29 12:00:40;;;;;;;4.20;1.57;;;;;;;;;;5054769;28;20334;-75
2022/05/29 12:03:20;;;;;;;4.00;1.37;;;;;;;;;;5044789;28;20243;-74
2022/05/29 12:05:53;;;;;;;3.00;1.50;;;;;;;;;;5051463;28;20210;-74
2022/05/29 12:08:27;;;;;;;4.27;1.80;;;;;;;;;;5044354;28;20222;-74
2022/05/29 12:11:11;;;;;;;2.73;1.60;;;;;;;;;;5048186;28;20199;-74
2022/05/29 12:13:46;;;;;;;3.40;1.70;;;;;;;;;;5052388;28;20211;-75
2022/05/29 12:16:17;;;;;;;5.13;1.80;;;;;;;;;;5047359;28;20206;-74
2022/05/29 12:18:48;;;;;;;3.67;1.60;;;;;;;;;;5047921;28;20262;-73
2022/05/29 12:21:18;;;;;;;4.10;1.70;;;;;;;;;;5051480;28;20658;-74
2022/05/29 12:23:51;;;;;;;2.97;2.00;;;;;;;;;;5059376;28;20757;-74
2022/05/29 12:26:22;;;;;;;5.53;2.10;;;;;;;;;;5046812;28;20770;-73
2022/05/29 12:28:53;;;;;;;5.70;2.23;;;;;;;;;;5049311;28;20226;-74
2022/05/29 12:31:26;;;;;;;6.20;2.20;;;;;;;;;;5048634;28;20211;-73
2022/05/29 12:33:57;;;;;;;6.47;2.57;;;;;;;;;;5050043;28;20214;-72
2022/05/29 12:36:32;;;;;;;8.17;2.47;;;;;;;;;;5047539;28;20266;-73
2022/05/29 12:39:14;;;;;;;6.60;2.20;;;;;;;;;;5049029;28;20281;-72
2022/05/29 12:41:54;;;;;;;5.17;2.27;;;;;;;;;;5050109;28;20207;-72
2022/05/29 12:44:38;;;;;;;5.97;2.30;;;;;;;;;;5043691;28;20202;-72
2022/05/29 12:47:36;;;;;;;9.17;2.60;;;;;;;;;;5048357;28;20669;-72
2022/05/29 12:50:45;;;;;;;6.03;2.43;;;;;;;;;;4965225;28;20225;-71
2022/05/29 12:53:32;;;;;;;4.77;2.23;;;;;;;;;;5040806;28;20693;-72
2022/05/29 12:56:09;;;;;;;7.37;2.50;;;;;;;;;;5050118;28;20624;-72
2022/05/29 12:58:47;;;;;;;6.00;2.17;;;;;;;;;;5046423;28;20225;-73
2022/05/29 13:01:30;;;;;;;6.83;2.30;;;;;;;;;;5037574;28;20206;-72
2022/05/29 13:04:25;;;;;;;5.30;2.30;;;;;;;;;;5048289;28;20562;-72
2022/05/29 13:07:05;;;;;;;4.87;2.03;;;;;;;;;;5052268;28;20233;-72
2022/05/29 13:09:48;;;;;;;3.80;2.10;;;;;;;;;;5050532;28;20207;-72
2022/05/29 13:12:20;;;;;;;2.57;1.77;;;;;;;;;;5040301;28;20262;-72
2022/05/29 13:14:50;;;;;;;5.53;1.97;;;;;;;;;;5051097;28;20215;-72
2022/05/29 13:17:24;;;;;;;5.00;2.00;;;;;;;;;;5050573;28;20231;-73
2022/05/29 13:20:04;;;;;;;5.30;1.87;;;;;;;;;;5045414;28;20202;-73
2022/05/29 13:22:48;;;;;;;3.13;1.83;;;;;;;;;;5051566;28;20225;-72
2022/05/29 13:25:17;;;;;;;3.23;1.70;;;;;;;;;;5035024;28;20214;-72
2022/05/29 13:27:49;;;;;;;4.13;1.80;;;;;;;;;;5041062;28;20246;-73
2022/05/29 13:30:35;;;;;;;5.00;1.90;;;;;;;;;;5046892;28;20199;-72
2022/05/29 13:33:22;;;;;;;4.10;1.60;;;;;;;;;;5041890;28;20703;-72
2022/05/29 13:35:51;;;;;;;3.43;1.60;;;;;;;;;;5032545;28;20674;-72
2022/05/29 13:38:38;;;;;;;3.73;1.30;;;;;;;;;;5044387;28;20223;-72
2022/05/29 13:41:07;;;;;;;2.63;1.20;;;;;;;;;;5035878;28;20199;-72
2022/05/29 13:43:39;;;;;;;2.77;1.40;;;;;;;;;;5048331;28;20199;-72
2022/05/29 13:46:23;;;;;;;1.97;1.17;;;;;;;;;;5044542;28;20713;-73
2022/05/29 13:49:12;;;;;;;2.07;1.30;;;;;;;;;;5048066;28;20590;-72
2022/05/29 13:51:44;;;;;;;2.37;1.13;;;;;;;;;;5039220;28;20281;-72
2022/05/29 13:54:25;;;;;;;2.03;1.30;;;;;;;;;;5042154;28;20318;-72
2022/05/29 13:57:05;;;;;;;3.20;1.43;;;;;;;;;;5044969;28;20590;-72
2022/05/29 14:05:12;;;;;;;3.53;1.60;;;;;;;;;;5013129;28;20507;-72
2022/05/29 14:07:41;;;;;;;4.47;1.70;;;;;;;;;;5065546;28;20282;-72
2022/05/29 14:10:26;;;;;;;3.50;1.90;;;;;;;;;;5050474;28;20206;-72
2022/05/29 14:13:06;;;;;;;3.50;1.27;;;;;;;;;;5044198;28;20257;-72
2022/05/29 14:15:45;;;;;;;2.37;1.40;;;;;;;;;;5045273;28;20658;-72
2022/05/29 14:18:15;;;;;;;2.87;1.37;;;;;;;;;;5053519;28;20313;-71
2022/05/29 14:20:47;;;;;;;1.27;1.17;;;;;;;;;;5054195;28;20245;-72
2022/05/29 14:23:42;;;;;;;3.77;1.43;;;;;;;;;;5053823;28;20570;-72
2022/05/29 14:29:12;;;;;;;5.20;1.60;;;;;;;;;;5065124;28;20219;-72
2022/05/29 14:31:50;;;;;;;3.00;1.80;;;;;;;;;;5052172;28;20207;-73
2022/05/29 14:34:33;;;;;;;3.50;1.60;;;;;;;;;;5048683;28;20219;-72
2022/05/29 14:37:11;;;;;;;3.50;1.77;;;;;;;;;;4995034;28;20272;-73
2022/05/29 14:39:40;;;;;;;4.07;1.50;;;;;;;;;;5051654;28;20736;-73
2022/05/29 14:42:16;;;;;;;4.37;2.03;;;;;;;;;;5045257;28;20590;-73
2022/05/29 14:44:48;;;;;;;4.17;1.73;;;;;;;;;;5048035;28;20239;-72
2022/05/29 14:47:21;;;;;;;3.60;1.90;;;;;;;;;;5054114;28;20235;-73
2022/05/29 14:49:54;;;;;;;4.50;1.80;;;;;;;;;;5057791;28;20621;-72
2022/05/29 14:52:28;;;;;;;5.37;2.07;;;;;;;;;;5058613;28;20206;-72
2022/05/29 14:55:12;;;;;;;4.20;2.00;;;;;;;;;;5054618;28;20567;-72
2022/05/29 14:57:48;;;;;;;4.57;1.77;;;;;;;;;;5046983;28;20224;-72
2022/05/29 15:00:27;;;;;;;3.47;2.30;;;;;;;;;;5047412;28;20214;-73
2022/05/29 15:02:59;;;;;;;4.40;1.87;;;;;;;;;;5055149;28;20207;-73
2022/05/29 15:05:28;;;;;;;2.87;1.87;;;;;;;;;;5046751;28;20304;-73
2022/05/29 15:10:47;;;;;;;3.57;2.10;;;;;;;;;;5061787;28;20685;-72
2022/05/29 15:13:17;;;;;;;6.10;2.37;;;;;;;;;;5054721;28;20634;-73
2022/05/29 15:15:47;;;;;;;3.33;2.00;;;;;;;;;;5047442;28;20923;-72
2022/05/29 15:18:19;;;;;;;3.40;2.13;;;;;;;;;;5050668;28;20230;-72
2022/05/29 15:26:27;;;;;;;4.63;2.13;;;;;;;;;;5041099;28;20199;-72
2022/05/29 15:28:56;;;;;;;2.67;2.00;;;;;;;;;;5055289;28;20228;-72
2022/05/29 15:31:27;;;;;;;2.90;1.63;;;;;;;;;;5049754;28;20665;-72
2022/05/29 15:34:02;;;;;;;3.00;1.70;;;;;;;;;;5056196;28;20223;-73
2022/05/29 15:36:36;;;;;;;3.60;1.70;;;;;;;;;;5046264;28;20657;-72
2022/05/29 15:39:11;;;;;;;4.13;1.87;;;;;;;;;;5051436;28;20215;-72
2022/05/29 15:41:52;;;;;;;2.60;1.43;;;;;;;;;;5044604;28;20227;-73
2022/05/29 15:44:32;;;;;;;2.83;1.70;;;;;;;;;;5025684;28;20206;-72
2022/05/29 15:47:18;;;;;;;3.33;1.80;;;;;;;;;;5051153;28;20278;-73
2022/05/29 15:49:55;;;;;;;4.73;1.90;;;;;;;;;;5051137;28;20298;-72
2022/05/29 15:52:29;;;;;;;5.33;1.73;;;;;;;;;;5049512;28;20211;-72
2022/05/29 15:55:04;;;;;;;4.87;1.90;;;;;;;;;;5043412;28;20556;-73